createdAt,value
2023-07-19T00:00:28.935Z,8.5
2023-07-19T00:01:33.880Z,7.3
2023-07-19T00:02:38.582Z,7.5
2023-07-19T00:03:43.444Z,7.8
2023-07-19T00:04:48.381Z,7.5
2023-07-19T00:05:53.118Z,8.7
2023-07-19T00:06:57.903Z,7
2023-07-19T00:08:02.740Z,8.2
2023-07-19T00:09:07.736Z,10.6
2023-07-19T00:10:12.518Z,7.9
2023-07-19T00:11:17.631Z,7.7
2023-07-19T00:12:23.892Z,8.5
2023-07-19T00:13:28.565Z,9.9
2023-07-19T00:14:33.358Z,11
2023-07-19T00:15:38.091Z,9
2023-07-19T00:16:42.873Z,9
2023-07-19T00:17:47.645Z,9.4
2023-07-19T00:18:59.810Z,7.9
2023-07-19T00:19:58.255Z,8
2023-07-19T00:21:02.979Z,10
2023-07-19T00:22:07.816Z,7.8
2023-07-19T00:23:12.583Z,10.4
2023-07-19T00:24:17.255Z,9.2
2023-07-19T00:25:22.139Z,8.3
2023-07-19T00:26:26.809Z,8.7
2023-07-19T00:27:31.581Z,10.1
2023-07-19T00:28:36.335Z,12
2023-07-19T00:29:41.061Z,8.2
2023-07-19T00:30:45.885Z,8.7
2023-07-19T00:31:50.642Z,9.1
2023-07-19T00:32:55.482Z,8.9
2023-07-19T00:34:00.354Z,9.7
2023-07-19T00:35:05.198Z,9.6
2023-07-19T00:36:10.488Z,8
2023-07-19T00:37:15.324Z,8.2
2023-07-19T00:38:20.087Z,11.9
2023-07-19T00:39:24.781Z,8.6
2023-07-19T00:40:29.633Z,9.4
2023-07-19T00:41:34.303Z,10
2023-07-19T00:42:39.098Z,8.8
2023-07-19T00:43:43.878Z,11.5
2023-07-19T00:44:48.581Z,8
2023-07-19T00:45:53.519Z,8.8
2023-07-19T00:46:58.113Z,8.2
2023-07-19T00:48:03.546Z,8.2
2023-07-19T00:49:08.434Z,9.2
2023-07-19T00:50:13.241Z,7.3
2023-07-19T00:51:18.210Z,7.5
2023-07-19T00:52:22.797Z,8.1
2023-07-19T00:53:27.553Z,9.3
2023-07-19T00:54:32.336Z,10.1
2023-07-19T00:55:37.158Z,9
2023-07-19T00:56:41.839Z,7.5
2023-07-19T00:57:47.695Z,8.5
2023-07-19T00:58:52.419Z,8.2
2023-07-19T00:59:57.187Z,9.7
2023-07-19T01:01:01.967Z,10.1
2023-07-19T01:02:06.879Z,8.2
2023-07-19T01:03:11.741Z,9.2
2023-07-19T01:04:16.498Z,10.3
2023-07-19T01:05:21.416Z,8.2
2023-07-19T01:06:26.017Z,9.4
2023-07-19T01:07:30.846Z,10.8
2023-07-19T01:08:35.613Z,10.8
2023-07-19T01:09:40.391Z,9.8
2023-07-19T01:10:45.150Z,11.7
2023-07-19T01:11:49.936Z,9.9
2023-07-19T01:12:54.709Z,8.2
2023-07-19T01:14:07.352Z,10.5
2023-07-19T01:15:12.094Z,10
2023-07-19T01:16:16.893Z,10.2
2023-07-19T01:17:21.706Z,8.3
2023-07-19T01:18:26.501Z,8.5
2023-07-19T01:19:32.250Z,9.1
2023-07-19T01:20:37.812Z,9.4
2023-07-19T01:21:43.639Z,10
2023-07-19T01:22:48.408Z,8.2
2023-07-19T01:23:53.177Z,10
2023-07-19T01:24:57.962Z,10.8
2023-07-19T01:26:03.638Z,9.9
2023-07-19T01:27:21.168Z,9.9
2023-07-19T01:28:13.706Z,11
2023-07-19T01:29:18.494Z,12.3
2023-07-19T01:30:23.450Z,12.4
2023-07-19T01:31:29.438Z,8.4
2023-07-19T01:32:34.069Z,8.8
2023-07-19T01:33:38.864Z,8.7
2023-07-19T01:34:43.589Z,8.5
2023-07-19T01:35:48.344Z,8.2
2023-07-19T01:36:53.177Z,10.9
2023-07-19T01:37:57.867Z,9.1
2023-07-19T01:39:02.652Z,10.5
2023-07-19T01:40:07.446Z,9.3
2023-07-19T01:41:12.228Z,10.5
2023-07-19T01:42:16.953Z,8.3
2023-07-19T01:43:21.785Z,9
2023-07-19T01:44:26.539Z,9.6
2023-07-19T01:45:31.516Z,9
2023-07-19T01:46:37.470Z,8.1
2023-07-19T01:47:43.287Z,8.4
2023-07-19T01:48:48.130Z,9.7
2023-07-19T01:49:52.918Z,10.6
2023-07-19T01:50:57.657Z,8.8
2023-07-19T01:52:02.759Z,8.3
2023-07-19T01:53:07.787Z,9.1
2023-07-19T01:54:12.752Z,10.4
2023-07-19T01:55:17.540Z,9.7
2023-07-19T01:56:22.297Z,10
2023-07-19T01:57:27.429Z,10.2
2023-07-19T01:58:37.505Z,10.3
2023-07-19T01:59:43.218Z,9.5
2023-07-19T02:00:48.131Z,8.3
2023-07-19T02:01:52.837Z,9.1
2023-07-19T02:02:57.527Z,9
2023-07-19T02:04:02.464Z,8.9
2023-07-19T02:05:09.400Z,12.3
2023-07-19T02:06:14.134Z,9.4
2023-07-19T02:07:19.028Z,8.6
2023-07-19T02:08:24.694Z,9.1
2023-07-19T02:09:29.498Z,10.1
2023-07-19T02:10:34.340Z,8.4
2023-07-19T02:11:39.033Z,8.5
2023-07-19T02:12:43.814Z,8.5
2023-07-19T02:13:48.738Z,9.9
2023-07-19T02:14:53.548Z,10.3
2023-07-19T02:15:58.412Z,9.7
2023-07-19T02:17:03.130Z,9.2
2023-07-19T02:18:10.773Z,9.6
2023-07-19T02:19:15.731Z,8.8
2023-07-19T02:20:20.894Z,9.8
2023-07-19T02:21:25.740Z,10.1
2023-07-19T02:22:30.574Z,8.6
2023-07-19T02:23:35.431Z,9.7
2023-07-19T02:24:40.088Z,8.4
2023-07-19T02:25:44.836Z,9.3
2023-07-19T02:26:52.405Z,8.8
2023-07-19T02:27:57.217Z,10.9
2023-07-19T02:29:01.934Z,7.9
2023-07-19T02:30:06.746Z,10.8
2023-07-19T02:31:11.737Z,8.6
2023-07-19T02:32:17.529Z,9
2023-07-19T02:33:22.462Z,9.7
2023-07-19T02:34:27.065Z,10.4
2023-07-19T02:35:31.818Z,11.6
2023-07-19T02:36:36.706Z,9.8
2023-07-19T02:37:41.393Z,8.1
2023-07-19T02:38:46.163Z,10.3
2023-07-19T02:39:50.958Z,9.8
2023-07-19T02:40:55.665Z,10.3
2023-07-19T02:42:00.465Z,9.7
2023-07-19T02:43:05.539Z,7.4
2023-07-19T02:44:10.256Z,7.7
2023-07-19T02:45:15.034Z,7.3
2023-07-19T02:46:19.769Z,8.3
2023-07-19T02:47:25.605Z,9.5
2023-07-19T02:48:30.430Z,7.9
2023-07-19T02:49:35.149Z,8.4
2023-07-19T02:50:39.879Z,8.9
2023-07-19T02:51:47.476Z,8.1
2023-07-19T02:52:52.272Z,8.4
2023-07-19T02:53:56.989Z,9.6
2023-07-19T02:55:01.881Z,7.9
2023-07-19T02:56:07.166Z,9.8
2023-07-19T02:57:11.805Z,7.6
2023-07-19T02:58:16.582Z,6.5
2023-07-19T02:59:21.406Z,9.5
2023-07-19T03:00:26.148Z,8.2
2023-07-19T03:01:31.976Z,8.8
2023-07-19T03:02:36.712Z,10.2
2023-07-19T03:03:41.518Z,9.1
2023-07-19T03:04:46.260Z,8.6
2023-07-19T03:05:52.355Z,8.9
2023-07-19T03:07:00.043Z,7.7
2023-07-19T03:08:04.966Z,8
2023-07-19T03:09:09.907Z,8.8
2023-07-19T03:10:15.349Z,8.8
2023-07-19T03:11:20.283Z,7.9
2023-07-19T03:12:24.753Z,8.3
2023-07-19T03:13:29.477Z,8.5
2023-07-19T03:14:34.248Z,10
2023-07-19T03:15:39.068Z,7.9
2023-07-19T03:16:43.887Z,9.3
2023-07-19T03:17:48.637Z,7.8
2023-07-19T03:18:53.325Z,9.9
2023-07-19T03:19:59.146Z,9.8
2023-07-19T03:21:03.979Z,7.7
2023-07-19T03:22:08.916Z,9.8
2023-07-19T03:23:13.686Z,9.3
2023-07-19T03:24:18.532Z,9.2
2023-07-19T03:25:23.211Z,12.4
2023-07-19T03:26:28.013Z,10.1
2023-07-19T03:27:32.816Z,9.5
2023-07-19T03:28:37.491Z,8.4
2023-07-19T03:29:42.277Z,9.6
2023-07-19T03:30:47.095Z,8.5
2023-07-19T03:31:51.835Z,9.9
2023-07-19T03:32:56.767Z,7.8
2023-07-19T03:34:02.495Z,9.4
2023-07-19T03:35:07.150Z,11.2
2023-07-19T03:36:11.965Z,9.7
2023-07-19T03:37:16.813Z,9.1
2023-07-19T03:38:21.488Z,8.4
2023-07-19T03:39:27.335Z,10.8
2023-07-19T03:40:33.355Z,9.2
2023-07-19T03:41:38.085Z,10.1
2023-07-19T03:42:42.855Z,9.5
2023-07-19T03:43:47.655Z,9.3
2023-07-19T03:44:52.633Z,10.6
2023-07-19T03:45:57.470Z,9.5
2023-07-19T03:47:02.195Z,11.2
2023-07-19T03:48:07.032Z,9.9
2023-07-19T03:49:11.965Z,10
2023-07-19T03:50:17.838Z,8.9
2023-07-19T03:51:23.396Z,9.3
2023-07-19T03:52:28.125Z,9.4
2023-07-19T03:53:32.823Z,8.7
2023-07-19T03:54:37.652Z,9.5
2023-07-19T03:55:43.661Z,8.8
2023-07-19T03:56:48.467Z,11.3
2023-07-19T03:57:53.522Z,9.6
2023-07-19T03:58:58.337Z,9.9
2023-07-19T04:00:03.372Z,9.2
2023-07-19T04:01:08.567Z,10
2023-07-19T04:02:14.868Z,10.8
2023-07-19T04:03:19.653Z,9.1
2023-07-19T04:04:24.431Z,8.7
2023-07-19T04:05:29.158Z,8.1
2023-07-19T04:06:33.934Z,8.9
2023-07-19T04:07:38.713Z,9.4
2023-07-19T04:08:43.540Z,10.4
2023-07-19T04:09:49.242Z,8.7
2023-07-19T04:10:55.041Z,12.6
2023-07-19T04:12:00.298Z,8.9
2023-07-19T04:13:05.068Z,10.2
2023-07-19T04:14:09.857Z,9
2023-07-19T04:15:14.714Z,9.1
2023-07-19T04:16:20.403Z,9
2023-07-19T04:17:25.267Z,8.4
2023-07-19T04:18:31.481Z,11.2
2023-07-19T04:19:36.224Z,9.2
2023-07-19T04:20:41.259Z,9.3
2023-07-19T04:21:46.267Z,9.4
2023-07-19T04:22:51.148Z,9.5
2023-07-19T04:23:57.726Z,9.6
2023-07-19T04:25:00.838Z,10.4
2023-07-19T04:26:05.662Z,9.6
2023-07-19T04:27:11.477Z,10.3
2023-07-19T04:28:16.241Z,10
2023-07-19T04:29:21.961Z,10.7
2023-07-19T04:30:26.716Z,9.6
2023-07-19T04:31:31.709Z,9
2023-07-19T04:32:37.649Z,9.4
2023-07-19T04:33:42.388Z,9.9
2023-07-19T04:34:47.179Z,8.4
2023-07-19T04:35:52.080Z,9.7
2023-07-19T04:36:57.305Z,10.1
2023-07-19T04:38:02.316Z,11.1
2023-07-19T04:39:08.454Z,9.3
2023-07-19T04:40:13.240Z,11.8
2023-07-19T04:41:20.427Z,10.9
2023-07-19T04:42:24.828Z,9.6
2023-07-19T04:43:29.583Z,9.7
2023-07-19T04:44:34.556Z,10.3
2023-07-19T04:45:39.382Z,10.8
2023-07-19T04:46:46.979Z,11.4
2023-07-19T04:47:51.827Z,9.7
2023-07-19T04:48:56.492Z,10.8
2023-07-19T04:50:01.340Z,9.6
2023-07-19T04:51:06.060Z,10.1
2023-07-19T04:52:10.816Z,8.9
2023-07-19T04:53:15.562Z,11.4
2023-07-19T04:54:21.656Z,10.6
2023-07-19T04:55:26.376Z,10.2
2023-07-19T04:56:31.184Z,10.7
2023-07-19T04:57:36.282Z,12.4
2023-07-19T04:58:40.978Z,8.2
2023-07-19T04:59:45.728Z,9.6
2023-07-19T05:00:50.542Z,10.6
2023-07-19T05:01:55.416Z,10.8
2023-07-19T05:03:01.341Z,9.1
2023-07-19T05:04:06.157Z,10.3
2023-07-19T05:05:11.557Z,11.4
2023-07-19T05:06:16.111Z,11.6
2023-07-19T05:07:21.020Z,9.6
2023-07-19T05:08:25.936Z,9.7
2023-07-19T05:09:30.678Z,10.4
2023-07-19T05:10:35.505Z,9.4
2023-07-19T05:11:40.217Z,13.4
2023-07-19T05:12:44.995Z,9.7
2023-07-19T05:13:51.688Z,8.3
2023-07-19T05:14:55.547Z,9.9
2023-07-19T05:16:00.356Z,7.8
2023-07-19T05:17:05.458Z,9.3
2023-07-19T05:18:10.150Z,10
2023-07-19T05:19:15.187Z,9
2023-07-19T05:20:19.858Z,12.5
2023-07-19T05:21:24.649Z,10.3
2023-07-19T05:22:29.443Z,9
2023-07-19T05:23:34.217Z,9.9
2023-07-19T05:24:39.198Z,8.5
2023-07-19T05:25:44.064Z,9
2023-07-19T05:26:48.847Z,9.6
2023-07-19T05:27:53.477Z,8.5
2023-07-19T05:28:58.374Z,11.7
2023-07-19T05:30:03.059Z,9.8
2023-07-19T05:31:08.170Z,7.4
2023-07-19T05:32:13.185Z,9.5
2023-07-19T05:33:17.873Z,8.5
2023-07-19T05:34:23.478Z,9.5
2023-07-19T05:35:29.485Z,10.2
2023-07-19T05:36:34.185Z,11.9
2023-07-19T05:37:38.984Z,7.8
2023-07-19T05:38:43.981Z,12.6
2023-07-19T05:39:51.277Z,11.3
2023-07-19T05:40:56.144Z,10
2023-07-19T05:42:03.790Z,12.4
2023-07-19T05:43:08.791Z,13.7
2023-07-19T05:44:13.533Z,10.6
2023-07-19T05:45:18.280Z,13.5
2023-07-19T05:46:23.211Z,12.1
2023-07-19T05:47:29.976Z,12.8
2023-07-19T05:48:33.829Z,11.1
2023-07-19T05:49:38.676Z,11.1
2023-07-19T05:50:43.420Z,12.3
2023-07-19T05:51:48.194Z,10.6
2023-07-19T05:52:53.056Z,13.3
2023-07-19T05:53:57.960Z,13.3
2023-07-19T05:55:04.751Z,13.7
2023-07-19T05:56:07.804Z,10.4
2023-07-19T05:57:12.771Z,9.8
2023-07-19T05:58:17.570Z,15.7
2023-07-19T05:59:25.587Z,15.3
2023-07-19T06:00:30.504Z,12.9
2023-07-19T06:01:35.439Z,12.7
2023-07-19T06:02:52.016Z,14.9
2023-07-19T06:03:44.817Z,12.5
2023-07-19T06:04:49.584Z,13.9
2023-07-19T06:05:54.309Z,12.8
2023-07-19T06:06:59.058Z,16.8
2023-07-19T06:08:14.275Z,15
2023-07-19T06:09:08.815Z,15.6
2023-07-19T06:10:13.578Z,11.5
2023-07-19T06:11:18.382Z,14
2023-07-19T06:12:23.196Z,11
2023-07-19T06:13:28.902Z,15
2023-07-19T06:14:33.863Z,11
2023-07-19T06:15:38.873Z,10.5
2023-07-19T06:16:45.110Z,10.3
2023-07-19T06:17:49.889Z,10.5
2023-07-19T06:18:54.798Z,12
2023-07-19T06:20:02.460Z,10.3
2023-07-19T06:21:08.491Z,10.1
2023-07-19T06:22:13.216Z,12
2023-07-19T06:23:20.127Z,10.7
2023-07-19T06:24:25.108Z,10.6
2023-07-19T06:25:30.149Z,12.1
2023-07-19T06:26:35.106Z,10.3
2023-07-19T06:27:39.921Z,12.6
2023-07-19T06:28:44.653Z,13.2
2023-07-19T06:29:49.687Z,13.7
2023-07-19T06:30:54.471Z,10.6
2023-07-19T06:32:00.482Z,12.9
2023-07-19T06:33:06.604Z,12.8
2023-07-19T06:34:10.054Z,12.9
2023-07-19T06:35:14.760Z,11.4
2023-07-19T06:36:19.541Z,11.9
2023-07-19T06:37:24.420Z,10.8
2023-07-19T06:38:29.388Z,11.6
2023-07-19T06:39:35.130Z,10.7
2023-07-19T06:40:39.961Z,13
2023-07-19T06:41:44.644Z,11.6
2023-07-19T06:42:52.259Z,10.1
2023-07-19T06:43:57.008Z,10.4
2023-07-19T06:45:01.818Z,10.7
2023-07-19T06:46:08.479Z,13.5
2023-07-19T06:47:11.640Z,11.8
2023-07-19T06:48:16.368Z,11.3
2023-07-19T06:49:22.184Z,12.1
2023-07-19T06:50:27.122Z,12
2023-07-19T06:51:32.018Z,10.4
2023-07-19T06:52:36.701Z,11.3
2023-07-19T06:53:41.701Z,9.7
2023-07-19T06:54:46.250Z,17
2023-07-19T06:55:52.057Z,13
2023-07-19T06:56:56.866Z,10.6
2023-07-19T06:58:02.633Z,11.3
2023-07-19T06:59:07.321Z,11.2
2023-07-19T07:00:12.176Z,10.7
2023-07-19T07:01:17.165Z,12.1
2023-07-19T07:02:21.944Z,13.4
2023-07-19T07:03:26.730Z,11.2
2023-07-19T07:04:31.431Z,12
2023-07-19T07:05:36.330Z,9.8
2023-07-19T07:06:41.009Z,12
2023-07-19T07:07:45.733Z,13.1
2023-07-19T07:08:50.796Z,10.6
2023-07-19T07:09:55.569Z,11.9
2023-07-19T07:11:00.335Z,13.7
2023-07-19T07:12:05.138Z,12
2023-07-19T07:13:10.358Z,11.1
2023-07-19T07:14:16.160Z,10.5
2023-07-19T07:15:21.034Z,10.3
2023-07-19T07:16:25.941Z,10.4
2023-07-19T07:17:30.896Z,9.7
2023-07-19T07:18:36.973Z,12.9
2023-07-19T07:19:41.809Z,13.5
2023-07-19T07:20:47.573Z,11.7
2023-07-19T07:21:53.268Z,10.9
2023-07-19T07:22:58.113Z,10.8
2023-07-19T07:24:02.918Z,10.7
2023-07-19T07:25:08.042Z,14.2
2023-07-19T07:26:12.960Z,10
2023-07-19T07:27:17.687Z,9.4
2023-07-19T07:28:22.575Z,9.1
2023-07-19T07:29:27.220Z,12
2023-07-19T07:30:32.018Z,12
2023-07-19T07:31:36.945Z,11.1
2023-07-19T07:32:41.972Z,10.2
2023-07-19T07:33:46.883Z,12.1
2023-07-19T07:34:51.622Z,14.1
2023-07-19T07:35:56.630Z,11.8
2023-07-19T07:37:01.634Z,13.4
2023-07-19T07:38:06.708Z,13.7
2023-07-19T07:39:11.626Z,12.2
2023-07-19T07:40:16.680Z,11.8
2023-07-19T07:41:22.012Z,12.5
2023-07-19T07:42:26.770Z,13
2023-07-19T07:43:31.768Z,10.8
2023-07-19T07:44:36.633Z,11.8
2023-07-19T07:45:41.674Z,10.8
2023-07-19T07:46:46.856Z,11.7
2023-07-19T07:47:52.930Z,12.6
2023-07-19T07:48:57.699Z,11.6
2023-07-19T07:50:02.530Z,11.4
2023-07-19T07:51:07.553Z,13.6
2023-07-19T07:52:12.232Z,11
2023-07-19T07:53:17.145Z,12.2
2023-07-19T07:54:22.094Z,11.4
2023-07-19T07:55:26.854Z,13.7
2023-07-19T07:56:31.649Z,13
2023-07-19T07:57:36.356Z,13.5
2023-07-19T07:58:41.137Z,10.5
2023-07-19T07:59:45.865Z,11.7
2023-07-19T08:00:51.801Z,12.2
2023-07-19T08:01:56.626Z,10.1
2023-07-19T08:03:01.641Z,13.1
2023-07-19T08:04:06.518Z,13.8
2023-07-19T08:05:11.274Z,12.7
2023-07-19T08:06:16.019Z,12.9
2023-07-19T08:07:20.888Z,14.4
2023-07-19T08:08:25.699Z,12.7
2023-07-19T08:09:30.629Z,12.4
2023-07-19T08:10:35.357Z,13.3
2023-07-19T08:11:40.323Z,14
2023-07-19T08:12:45.153Z,11.2
2023-07-19T08:13:49.948Z,15.7
2023-07-19T08:14:54.757Z,12.7
2023-07-19T08:15:59.496Z,12.1
2023-07-19T08:17:04.309Z,13
2023-07-19T08:18:09.049Z,12.6
2023-07-19T08:19:13.748Z,13
2023-07-19T08:20:18.536Z,11.7
2023-07-19T08:21:34.612Z,16.4
2023-07-19T08:22:28.115Z,15.8
2023-07-19T08:23:33.816Z,12.1
2023-07-19T08:24:38.645Z,13.4
2023-07-19T08:25:43.645Z,11
2023-07-19T08:26:48.602Z,14.4
2023-07-19T08:27:53.447Z,11.8
2023-07-19T08:28:58.510Z,11.2
2023-07-19T08:30:03.103Z,12.2
2023-07-19T08:31:11.088Z,11.4
2023-07-19T08:32:16.882Z,11
2023-07-19T08:33:21.656Z,11.3
2023-07-19T08:34:26.419Z,10.8
2023-07-19T08:35:31.425Z,10.6
2023-07-19T08:36:36.263Z,10.5
2023-07-19T08:37:40.955Z,9.7
2023-07-19T08:38:47.063Z,10.1
2023-07-19T08:39:51.788Z,9.5
2023-07-19T08:40:56.581Z,9.6
2023-07-19T08:42:04.195Z,11
2023-07-19T08:43:09.205Z,10.1
2023-07-19T08:44:14.196Z,10.9
2023-07-19T08:45:18.916Z,11.5
2023-07-19T08:46:23.855Z,9.6
2023-07-19T08:47:30.865Z,11.8
2023-07-19T08:48:35.604Z,14.1
2023-07-19T08:49:40.354Z,10.6
2023-07-19T08:50:45.436Z,10.2
2023-07-19T08:51:50.362Z,10
2023-07-19T08:52:55.205Z,9.8
2023-07-19T08:53:59.930Z,8.9
2023-07-19T08:55:04.660Z,9.4
2023-07-19T08:56:09.479Z,8.5
2023-07-19T08:57:16.880Z,10
2023-07-19T08:58:23.285Z,8.7
2023-07-19T08:59:29.343Z,9.1
2023-07-19T09:00:33.891Z,9.6
2023-07-19T09:01:38.699Z,9.6
2023-07-19T09:02:43.703Z,10.2
2023-07-19T09:03:48.789Z,8.5
2023-07-19T09:04:53.717Z,10.7
2023-07-19T09:06:08.809Z,7.4
2023-07-19T09:07:13.518Z,9
2023-07-19T09:08:18.302Z,8.4
2023-07-19T09:09:23.097Z,8.3
2023-07-19T09:10:28.827Z,9.5
2023-07-19T09:11:33.627Z,10.9
2023-07-19T09:12:38.407Z,9.4
2023-07-19T09:13:45.595Z,10.1
2023-07-19T09:14:50.488Z,8
2023-07-19T09:15:55.293Z,8.7
2023-07-19T09:17:00.809Z,7.9
2023-07-19T09:18:10.732Z,10.3
2023-07-19T09:19:15.462Z,8.1
2023-07-19T09:20:20.253Z,10.9
2023-07-19T09:21:26.297Z,10.1
2023-07-19T09:22:41.209Z,9.1
2023-07-19T09:23:46.037Z,9.5
2023-07-19T09:24:50.792Z,12.2
2023-07-19T09:26:00.818Z,8.7
2023-07-19T09:27:06.094Z,9.9
2023-07-19T09:28:11.123Z,8.4
2023-07-19T09:29:16.013Z,8.9
2023-07-19T09:30:20.846Z,9.6
2023-07-19T09:31:26.196Z,8.1
2023-07-19T09:32:30.796Z,9.4
2023-07-19T09:33:36.507Z,10.4
2023-07-19T09:34:42.645Z,9.3
2023-07-19T09:35:47.527Z,8.7
2023-07-19T09:36:53.372Z,9.5
2023-07-19T09:37:58.298Z,10.2
2023-07-19T09:39:03.902Z,8.9
2023-07-19T09:40:11.026Z,7.6
2023-07-19T09:41:15.936Z,9.1
2023-07-19T09:42:21.880Z,10.3
2023-07-19T09:43:26.795Z,9.1
2023-07-19T09:44:32.897Z,9.1
2023-07-19T09:45:37.789Z,10.2
2023-07-19T09:46:46.062Z,8.9
2023-07-19T09:47:53.917Z,9.7
2023-07-19T09:49:03.028Z,9.5
2023-07-19T09:50:08.950Z,9.1
2023-07-19T09:51:13.711Z,9.3
2023-07-19T09:52:21.693Z,12
2023-07-19T09:53:26.598Z,8.9
2023-07-19T09:54:31.459Z,9
2023-07-19T09:55:36.295Z,9.8
2023-07-19T09:56:42.139Z,8
2023-07-19T09:57:47.540Z,8.7
2023-07-19T09:58:55.475Z,9.6
2023-07-19T10:00:00.292Z,8.4
2023-07-19T10:01:05.136Z,8.3
2023-07-19T10:02:09.850Z,9.4
2023-07-19T10:03:17.259Z,10
2023-07-19T10:04:21.726Z,8.1
2023-07-19T10:05:34.754Z,9.2
2023-07-19T10:06:39.716Z,10
2023-07-19T10:07:51.393Z,9.3
2023-07-19T10:08:49.194Z,10.1
2023-07-19T10:09:53.978Z,7.3
2023-07-19T10:11:04.470Z,7.9
2023-07-19T10:12:09.356Z,9.2
2023-07-19T10:13:19.284Z,10.5
2023-07-19T10:14:33.471Z,8.9
2023-07-19T10:15:28.956Z,8.4
2023-07-19T10:16:33.918Z,7
2023-07-19T10:17:38.983Z,7.6
2023-07-19T10:18:48.706Z,9
2023-07-19T10:20:04.032Z,8.8
2023-07-19T10:21:15.013Z,8.2
2023-07-19T10:22:20.462Z,7.4
2023-07-19T10:23:25.326Z,7.4
2023-07-19T10:24:30.202Z,8
2023-07-19T10:25:36.277Z,8.1
2023-07-19T10:26:41.034Z,7.5
2023-07-19T10:27:46.097Z,6.7
2023-07-19T10:28:56.237Z,8.9
2023-07-19T10:30:03.897Z,7
2023-07-19T10:32:13.898Z,7.6
2023-07-19T10:33:22.044Z,7.2
2023-07-19T10:34:34.410Z,8
2023-07-19T10:35:31.963Z,7.2
2023-07-19T10:36:36.982Z,8.3
2023-07-19T10:37:51.639Z,5.7
2023-07-19T10:38:55.670Z,7.8
2023-07-19T10:40:00.540Z,7.6
2023-07-19T10:41:05.567Z,7.3
2023-07-19T10:42:10.330Z,6.1
2023-07-19T10:43:18.540Z,9
2023-07-19T10:44:22.203Z,6.1
2023-07-19T10:45:29.835Z,6.7
2023-07-19T10:46:34.524Z,7.3
2023-07-19T10:47:39.298Z,7.2
2023-07-19T10:48:44.370Z,8.2
2023-07-19T10:49:52.174Z,6.3
2023-07-19T10:50:57.425Z,8.3
2023-07-19T10:52:05.057Z,6.2
2023-07-19T10:53:10.281Z,7.3
2023-07-19T10:54:15.070Z,7.5
2023-07-19T10:55:38.641Z,6
2023-07-19T10:56:25.641Z,5.5
2023-07-19T10:57:30.395Z,6.1
2023-07-19T10:58:35.195Z,6.5
2023-07-19T10:59:40.054Z,5.9
2023-07-19T11:00:45.308Z,5.4
2023-07-19T11:01:50.118Z,6.4
2023-07-19T11:02:55.156Z,7.4
2023-07-19T11:03:59.987Z,9.1
2023-07-19T11:05:10.412Z,7.1
2023-07-19T11:06:15.271Z,8.3
2023-07-19T11:07:20.224Z,6
2023-07-19T11:08:25.355Z,7.2
2023-07-19T11:09:31.796Z,4.8
2023-07-19T11:10:37.534Z,6.9
2023-07-19T11:11:42.620Z,5.7
2023-07-19T11:12:47.584Z,4.9
2023-07-19T11:13:52.409Z,7.1
2023-07-19T11:14:57.170Z,5.4
2023-07-19T11:16:02.302Z,6.5
2023-07-19T11:17:07.238Z,8.1
2023-07-19T11:18:12.006Z,6
2023-07-19T11:19:17.098Z,6.5
2023-07-19T11:20:22.070Z,8.4
2023-07-19T11:21:31.909Z,6.2
2023-07-19T11:22:36.690Z,5.7
2023-07-19T11:23:41.528Z,5.2
2023-07-19T11:24:46.512Z,6.1
2023-07-19T11:25:55.355Z,7.3
2023-07-19T11:27:05.280Z,8.6
2023-07-19T11:28:14.354Z,5.6
2023-07-19T11:29:30.801Z,6.4
2023-07-19T11:30:38.798Z,6.9
2023-07-19T11:31:47.174Z,7
2023-07-19T11:32:51.956Z,7.1
2023-07-19T11:34:01.884Z,6.9
2023-07-19T11:35:15.374Z,6.8
2023-07-19T11:36:22.953Z,7.6
2023-07-19T11:37:30.121Z,6
2023-07-19T11:38:35.421Z,6.4
2023-07-19T11:39:40.183Z,5.5
2023-07-19T11:40:44.978Z,6.8
2023-07-19T11:41:49.869Z,6.7
2023-07-19T11:42:54.479Z,6.2
2023-07-19T11:43:59.358Z,6.4
2023-07-19T11:45:04.296Z,6.1
2023-07-19T11:46:14.972Z,6.6
2023-07-19T11:47:19.743Z,7
2023-07-19T11:48:25.246Z,6.2
2023-07-19T11:49:29.380Z,6.1
2023-07-19T11:50:34.061Z,6.9
2023-07-19T11:51:38.746Z,5.9
2023-07-19T11:52:43.548Z,4.8
2023-07-19T11:53:51.274Z,5.8
2023-07-19T11:54:56.341Z,7.4
2023-07-19T11:56:02.900Z,6.4
2023-07-19T11:57:07.293Z,7.4
2023-07-19T11:58:12.071Z,5.7
2023-07-19T11:59:17.837Z,6.5
2023-07-19T12:00:22.534Z,7.1
2023-07-19T12:01:27.541Z,5.5
2023-07-19T12:02:32.336Z,8.2
2023-07-19T12:03:37.243Z,5.7
2023-07-19T12:04:41.958Z,5.8
2023-07-19T12:05:46.908Z,6.9
2023-07-19T12:06:51.817Z,6.8
2023-07-19T12:07:56.726Z,6.8
2023-07-19T12:09:01.529Z,7.1
2023-07-19T12:10:06.312Z,7
2023-07-19T12:11:11.709Z,6.1
2023-07-19T12:12:16.619Z,7.4
2023-07-19T12:13:21.662Z,6.5
2023-07-19T12:14:28.200Z,7.4
2023-07-19T12:15:32.161Z,6.8
2023-07-19T12:16:37.126Z,5.4
2023-07-19T12:17:41.936Z,5.8
2023-07-19T12:18:47.531Z,6.9
2023-07-19T12:19:52.435Z,8.9
2023-07-19T12:20:57.290Z,6.8
2023-07-19T12:22:14.017Z,7.3
2023-07-19T12:23:07.398Z,6.7
2023-07-19T12:24:12.317Z,7.2
2023-07-19T12:25:18.709Z,6.7
2023-07-19T12:27:28.791Z,5.4
2023-07-19T12:28:33.508Z,5.4
2023-07-19T12:29:52.650Z,5.4
2023-07-19T12:30:44.298Z,8.4
2023-07-19T12:31:49.018Z,7.3
2023-07-19T12:32:53.965Z,7.7
2023-07-19T12:33:59.265Z,7
2023-07-19T12:35:07.409Z,6.8
2023-07-19T12:36:12.467Z,6.1
2023-07-19T12:37:17.268Z,6.7
2023-07-19T12:38:22.023Z,7
2023-07-19T12:39:26.780Z,6.9
2023-07-19T12:40:31.584Z,6.7
2023-07-19T12:41:37.529Z,6.3
2023-07-19T12:42:41.072Z,6.4
2023-07-19T12:43:45.815Z,5.2
2023-07-19T12:44:50.735Z,7.1
2023-07-19T12:45:55.658Z,6
2023-07-19T12:47:00.685Z,7.4
2023-07-19T12:48:05.543Z,10.2
2023-07-19T12:49:10.259Z,9.4
2023-07-19T12:50:14.984Z,6.3
2023-07-19T12:51:19.787Z,6.5
2023-07-19T12:52:26.369Z,5.9
2023-07-19T12:53:29.246Z,5.7
2023-07-19T12:54:34.105Z,7.5
2023-07-19T12:55:39.093Z,6.7
2023-07-19T12:56:44.035Z,6.4
2023-07-19T12:57:48.844Z,6.6
2023-07-19T12:58:53.600Z,5.6
2023-07-19T12:59:58.523Z,7.3
2023-07-19T13:01:03.576Z,6.1
2023-07-19T13:02:09.464Z,6.6
2023-07-19T13:03:14.587Z,7.9
2023-07-19T13:04:19.226Z,6.5
2023-07-19T13:05:24.060Z,7.1
2023-07-19T13:06:28.913Z,5.3
2023-07-19T13:07:33.771Z,9
2023-07-19T13:08:38.683Z,5.4
2023-07-19T13:09:43.669Z,7
2023-07-19T13:10:48.397Z,7
2023-07-19T13:11:53.145Z,10.2
2023-07-19T13:12:57.893Z,7
2023-07-19T13:14:02.685Z,6.7
2023-07-19T13:15:10.304Z,6.1
2023-07-19T13:16:15.362Z,7.3
2023-07-19T13:17:22.219Z,5.4
2023-07-19T13:18:25.900Z,5.5
2023-07-19T13:19:30.615Z,5.2
2023-07-19T13:20:35.825Z,5.6
2023-07-19T13:21:41.753Z,5.3
2023-07-19T13:22:47.982Z,7.1
2023-07-19T13:23:54.049Z,5.5
2023-07-19T13:24:58.111Z,7.6
2023-07-19T13:26:03.129Z,7.2
2023-07-19T13:27:07.818Z,7.4
2023-07-19T13:28:12.710Z,7
2023-07-19T13:29:18.790Z,7.5
2023-07-19T13:30:25.074Z,7
2023-07-19T13:31:28.714Z,6.4
2023-07-19T13:32:33.507Z,6.4
2023-07-19T13:33:38.334Z,5.7
2023-07-19T13:34:43.900Z,9.4
2023-07-19T13:36:54.474Z,8.6
2023-07-19T13:39:03.389Z,6.9
2023-07-19T13:40:09.455Z,8.8
2023-07-19T13:41:14.566Z,9.5
2023-07-19T13:42:19.759Z,8.5
2023-07-19T13:43:24.904Z,8.3
2023-07-19T13:44:29.833Z,7.6
2023-07-19T13:45:34.765Z,7.4
2023-07-19T13:46:39.568Z,6.9
2023-07-19T13:47:47.556Z,7.8
2023-07-19T13:48:52.627Z,7.8
2023-07-19T13:49:59.820Z,6.6
2023-07-19T13:51:06.817Z,7.2
2023-07-19T13:52:11.873Z,6.7
2023-07-19T13:53:16.689Z,6.8
2023-07-19T13:54:21.420Z,6.7
2023-07-19T13:55:26.109Z,6
2023-07-19T13:56:30.897Z,7.2
2023-07-19T13:57:35.954Z,6.9
2023-07-19T13:58:41.006Z,7
2023-07-19T13:59:45.735Z,6.6
2023-07-19T14:00:50.517Z,5.8
2023-07-19T14:01:55.305Z,6.1
2023-07-19T14:03:00.253Z,6.1
2023-07-19T14:04:05.074Z,6.9
2023-07-19T14:05:10.894Z,6.7
2023-07-19T14:06:14.908Z,9.2
2023-07-19T14:07:19.977Z,5.8
2023-07-19T14:08:24.666Z,6
2023-07-19T14:09:29.455Z,7.7
2023-07-19T14:10:34.258Z,6.3
2023-07-19T14:11:40.069Z,5.2
2023-07-19T14:12:44.982Z,5.4
2023-07-19T14:14:54.471Z,6.9
2023-07-19T14:17:04.049Z,5.6
2023-07-19T14:18:09.076Z,6.2
2023-07-19T14:19:16.749Z,6.3
2023-07-19T14:20:19.031Z,7.6
2023-07-19T14:21:23.901Z,6.5
2023-07-19T14:22:29.729Z,8.1
2023-07-19T14:23:34.592Z,7.3
2023-07-19T14:24:41.513Z,6.4
2023-07-19T14:25:45.311Z,6.2
2023-07-19T14:26:50.308Z,7.6
2023-07-19T14:27:56.097Z,5.6
2023-07-19T14:29:00.846Z,5.5
2023-07-19T14:30:05.828Z,6.8
2023-07-19T14:31:12.365Z,6.4
2023-07-19T14:32:17.495Z,5.8
2023-07-19T14:33:22.228Z,5.7
2023-07-19T14:34:27.093Z,7.1
2023-07-19T14:35:34.790Z,6.1
2023-07-19T14:36:39.674Z,6.5
2023-07-19T14:37:44.383Z,6.7
2023-07-19T14:38:49.103Z,6
2023-07-19T14:39:53.891Z,9.2
2023-07-19T14:40:59.730Z,5.7
2023-07-19T14:42:04.508Z,6.6
2023-07-19T14:43:09.497Z,6.4
2023-07-19T14:44:14.253Z,5.3
2023-07-19T14:45:19.292Z,6.5
2023-07-19T14:46:24.432Z,6.6
2023-07-19T14:47:28.903Z,8
2023-07-19T14:48:33.615Z,5.2
2023-07-19T14:49:39.363Z,5.4
2023-07-19T14:50:44.134Z,5.8
2023-07-19T14:51:49.087Z,7.1
2023-07-19T14:52:54.955Z,5.6
2023-07-19T14:54:00.479Z,6.7
2023-07-19T14:55:05.252Z,7.2
2023-07-19T14:56:10.320Z,5.4
2023-07-19T14:57:15.042Z,5.7
2023-07-19T14:58:21.105Z,7
2023-07-19T14:59:25.986Z,6.7
2023-07-19T15:01:35.829Z,5.3
2023-07-19T15:02:40.666Z,5.7
2023-07-19T15:03:45.298Z,5.6